Time;durP1;ratioP1;P1;durP2;ratioP2;P2;SDS_P1;SDS_P2;PMS_P1;PMS_P2;Temp;Humidity;BMP_temperature;BMP_pressure;BME280_temperature;BME280_humidity;BME280_pressure;Samples;Min_cycle;Max_cycle;Signal;HPM_P1;HPM_P2
2022/05/23 00:01:55;;;;;;;7.83;7.13;;;22.20;85.20;;;;;;6182206;23;20775;-79
2022/05/23 00:04:23;;;;;;;7.75;6.95;;;22.20;85.10;;;;;;6191223;23;20376;-78
2022/05/23 00:06:51;;;;;;;7.80;7.15;;;22.20;84.80;;;;;;6160185;23;20383;-78
2022/05/23 00:09:18;;;;;;;9.43;8.52;;;22.30;84.60;;;;;;6157358;23;20381;-79
2022/05/23 00:11:45;;;;;;;7.90;7.20;;;22.30;84.50;;;;;;6149682;23;20873;-78
2022/05/23 00:14:14;;;;;;;7.60;6.85;;;22.30;84.40;;;;;;6161396;23;20373;-77
2022/05/23 00:16:44;;;;;;;9.10;8.30;;;22.30;84.30;;;;;;6156165;23;20399;-79
2022/05/23 00:19:12;;;;;;;7.80;7.15;;;22.30;84.20;;;;;;6158273;23;20384;-77
2022/05/23 00:21:41;;;;;;;7.40;6.70;;;22.30;83.90;;;;;;6159711;23;20388;-78
2022/05/23 00:24:13;;;;;;;7.28;6.68;;;22.40;83.80;;;;;;6155914;23;20376;-77
2022/05/23 00:26:42;;;;;;;7.60;6.82;;;22.40;83.50;;;;;;6156192;23;20705;-76
2022/05/23 00:29:10;;;;;;;7.40;6.73;;;22.40;83.20;;;;;;6157096;23;20427;-79
2022/05/23 00:35:17;;;;;;;5.88;5.38;;;22.40;83.10;;;;;;6159423;23;20438;-78
2022/05/23 00:37:16;;;;;;;6.10;5.60;;;22.40;82.50;;;;;;6181275;23;20394;-78
2022/05/23 00:39:43;;;;;;;5.65;5.22;;;22.50;82.30;;;;;;6161416;23;20380;-77
2022/05/23 00:44:59;;;;;;;6.55;5.95;;;22.50;82.00;;;;;;6184550;23;20380;-80
2022/05/23 00:47:28;;;;;;;7.05;6.35;;;22.50;81.90;;;;;;6157815;23;20832;-77
2022/05/23 00:49:54;;;;;;;7.17;6.57;;;22.50;81.80;;;;;;6162810;23;20833;-77
2022/05/23 00:52:47;;;;;;;7.93;7.13;;;22.40;81.90;;;;;;6161341;23;20384;-79
2022/05/23 00:55:20;;;;;;;7.20;6.60;;;22.40;82.10;;;;;;6147326;23;20376;-77
2022/05/23 00:57:51;;;;;;;7.35;6.65;;;22.40;82.40;;;;;;6165842;23;20701;-77
2022/05/23 01:00:19;;;;;;;6.70;6.20;;;22.40;82.50;;;;;;6159948;23;20416;-79
2022/05/23 01:02:53;;;;;;;6.90;6.30;;;22.40;82.70;;;;;;6159263;23;20384;-77
2022/05/23 01:05:20;;;;;;;8.27;7.47;;;22.40;82.70;;;;;;6189242;23;20380;-77
2022/05/23 01:07:47;;;;;;;8.45;7.60;;;22.40;82.80;;;;;;6159656;23;20404;-77
2022/05/23 01:10:14;;;;;;;7.90;7.20;;;22.40;82.90;;;;;;6157013;23;20368;-78
2022/05/23 01:12:41;;;;;;;8.03;7.17;;;22.40;82.90;;;;;;6163754;23;20415;-77
2022/05/23 01:15:35;;;;;;;7.30;6.60;;;22.30;83.00;;;;;;6161485;23;20427;-79
2022/05/23 01:18:03;;;;;;;7.13;6.43;;;22.30;83.10;;;;;;6161888;23;20890;-79
2022/05/23 01:20:30;;;;;;;7.50;6.47;;;22.30;83.10;;;;;;6167900;23;20427;-79
2022/05/23 01:23:03;;;;;;;7.65;6.88;;;22.20;83.10;;;;;;6145861;23;20853;-80
2022/05/23 01:25:41;;;;;;;8.32;7.53;;;22.20;83.10;;;;;;6192811;23;20385;-79
2022/05/23 01:28:09;;;;;;;8.10;7.30;;;22.20;83.10;;;;;;6158106;23;20377;-77
2022/05/23 01:30:36;;;;;;;8.60;7.75;;;22.10;83.20;;;;;;6144732;23;20380;-77
2022/05/23 01:33:04;;;;;;;7.82;7.03;;;22.10;83.30;;;;;;6158762;23;20380;-77
2022/05/23 01:35:31;;;;;;;8.68;7.82;;;22.10;83.50;;;;;;6164482;23;20048;-78
2022/05/23 01:37:58;;;;;;;9.80;8.05;;;22.00;83.40;;;;;;6189727;23;20032;-77
2022/05/23 01:40:26;;;;;;;9.10;7.47;;;22.00;83.60;;;;;;6158426;23;20075;-78
2022/05/23 01:42:53;;;;;;;;;;;21.90;83.50;;;;;;6192949;23;20025;-77
2022/05/23 01:45:26;;;;;;;8.15;7.35;;;21.90;83.40;;;;;;6185080;23;20024;-78
2022/05/23 01:47:53;;;;;;;9.88;8.23;;;21.80;83.40;;;;;;6159502;23;20025;-77
2022/05/23 01:50:24;;;;;;;12.93;8.57;;;21.80;83.40;;;;;;6166993;23;20343;-77
2022/05/23 01:52:52;;;;;;;;;;;21.70;83.50;;;;;;6158436;23;20028;-79
2022/05/23 01:55:19;;;;;;;;;;;21.70;83.80;;;;;;6165357;23;19923;-77
2022/05/23 01:57:46;;;;;;;11.73;8.95;;;21.60;84.30;;;;;;6165159;23;19967;-79
2022/05/23 02:02:59;;;;;;;;;;;21.50;85.00;;;;;;6184820;23;20352;-78
2022/05/23 02:05:27;;;;;;;13.30;9.33;;;21.50;85.20;;;;;;6163066;23;19920;-78
2022/05/23 02:07:55;;;;;;;;;;;21.50;85.30;;;;;;6162955;23;20032;-79
2022/05/23 02:10:23;;;;;;;;;;;21.50;85.20;;;;;;6158582;23;19916;-78
2022/05/23 02:12:51;;;;;;;9.43;8.52;;;21.50;85.30;;;;;;6161256;23;19916;-78
2022/05/23 02:15:19;;;;;;;10.18;7.30;;;21.40;85.10;;;;;;6163991;23;20041;-79
2022/05/23 02:17:46;;;;;;;10.93;9.63;;;21.50;85.00;;;;;;6162236;23;20454;-77
2022/05/23 02:20:15;;;;;;;11.00;9.85;;;21.40;85.30;;;;;;6155075;23;20071;-78
2022/05/23 02:22:42;;;;;;;9.82;8.07;;;21.40;85.70;;;;;;6164534;23;20033;-79
2022/05/23 02:25:10;;;;;;;8.75;8.05;;;21.40;85.60;;;;;;6160959;23;20335;-79
2022/05/23 02:27:37;;;;;;;10.50;9.27;;;21.30;85.60;;;;;;6161529;23;20021;-79
2022/05/23 02:30:05;;;;;;;9.18;8.18;;;21.40;85.70;;;;;;6161758;23;20028;-77
2022/05/23 02:32:32;;;;;;;11.43;7.93;;;21.30;85.60;;;;;;6188757;23;20465;-79
2022/05/23 02:35:00;;;;;;;9.38;8.48;;;21.30;85.60;;;;;;6187714;23;20025;-78
2022/05/23 02:37:27;;;;;;;12.00;9.18;;;21.30;85.50;;;;;;6167669;23;20036;-79
2022/05/23 02:39:54;;;;;;;8.50;7.20;;;21.30;85.40;;;;;;6190965;23;20120;-77
2022/05/23 02:42:21;;;;;;;8.30;7.57;;;21.30;85.30;;;;;;6160288;23;20520;-78
2022/05/23 02:44:48;;;;;;;7.03;6.32;;;21.30;85.20;;;;;;6163893;23;20036;-77
2022/05/23 02:47:15;;;;;;;9.75;8.25;;;21.30;85.20;;;;;;6156920;23;20033;-77
2022/05/23 02:49:42;;;;;;;8.20;7.45;;;21.30;85.10;;;;;;6167137;23;20079;-79
2022/05/23 02:52:09;;;;;;;8.45;7.65;;;21.20;85.30;;;;;;6160681;23;20024;-78
2022/05/23 02:54:36;;;;;;;7.63;6.90;;;21.20;85.30;;;;;;6164097;23;20024;-78
2022/05/23 02:57:03;;;;;;;11.07;8.35;;;21.20;85.20;;;;;;6166209;23;20402;-78
2022/05/23 02:59:33;;;;;;;8.23;7.47;;;21.20;85.20;;;;;;6163243;23;20501;-79
2022/05/23 03:04:46;;;;;;;;;;;21.10;85.60;;;;;;6194922;23;20052;-78
2022/05/23 03:07:16;;;;;;;;;;;21.10;85.80;;;;;;6164619;23;19923;-79
2022/05/23 03:09:44;;;;;;;;;;;21.00;85.70;;;;;;6163704;23;19924;-78
2022/05/23 03:12:11;;;;;;;;;;;21.00;85.70;;;;;;6169821;23;19920;-79
2022/05/23 03:14:38;;;;;;;7.95;7.10;;;21.00;85.60;;;;;;6148875;23;20273;-78
2022/05/23 03:17:06;;;;;;;8.15;7.32;;;21.00;85.60;;;;;;6181465;23;20021;-78
2022/05/23 03:19:37;;;;;;;8.45;7.53;;;21.00;85.50;;;;;;6164298;23;20031;-78
2022/05/23 03:27:40;;;;;;;9.13;8.07;;;20.90;85.40;;;;;;6190409;23;20461;-77
2022/05/23 03:30:08;;;;;;;8.00;7.15;;;20.90;85.40;;;;;;6159015;23;20025;-77
2022/05/23 03:32:34;;;;;;;;;;;20.90;85.70;;;;;;6161760;23;20025;-78
2022/05/23 03:35:02;;;;;;;;;;;20.90;86.50;;;;;;6162487;23;19920;-79
2022/05/23 03:37:28;;;;;;;;;;;20.90;86.90;;;;;;6158260;23;19916;-76
2022/05/23 03:39:55;;;;;;;11.27;9.60;;;20.90;87.70;;;;;;6159366;23;19970;-77
2022/05/23 03:42:22;;;;;;;10.13;8.32;;;20.80;87.40;;;;;;6157623;23;20028;-77
2022/05/23 03:44:49;;;;;;;11.65;8.07;;;20.90;87.20;;;;;;6170878;23;20056;-79
2022/05/23 03:47:16;;;;;;;9.13;8.23;;;20.90;87.00;;;;;;6158000;23;20075;-79
2022/05/23 03:49:44;;;;;;;9.30;8.40;;;20.90;87.00;;;;;;6159542;23;20072;-78
2022/05/23 03:52:11;;;;;;;9.85;8.77;;;20.90;87.00;;;;;;6160450;23;20485;-78
2022/05/23 03:54:38;;;;;;;8.82;7.93;;;20.90;87.10;;;;;;6170338;23;20025;-77
2022/05/23 03:57:05;;;;;;;10.55;9.15;;;20.90;86.90;;;;;;6164316;23;20059;-77
2022/05/23 03:59:32;;;;;;;11.52;9.23;;;20.90;87.00;;;;;;6159687;23;20029;-79
2022/05/23 04:01:59;;;;;;;10.10;8.32;;;20.90;87.10;;;;;;6160713;23;20413;-77
2022/05/23 04:04:31;;;;;;;17.13;11.45;;;20.90;87.10;;;;;;6165119;23;20021;-79
2022/05/23 04:07:06;;;;;;;10.05;8.70;;;20.90;87.40;;;;;;6165597;23;20096;-77
2022/05/23 04:09:34;;;;;;;10.98;9.10;;;20.80;87.60;;;;;;6150702;23;20029;-77
2022/05/23 04:12:00;;;;;;;9.68;8.68;;;20.80;87.80;;;;;;6192094;23;20021;-78
2022/05/23 04:14:29;;;;;;;10.48;8.07;;;20.80;87.70;;;;;;6160265;23;20024;-77
2022/05/23 04:16:56;;;;;;;10.63;9.07;;;20.70;87.60;;;;;;6161326;23;20025;-77
2022/05/23 04:19:23;;;;;;;10.93;8.82;;;20.80;87.60;;;;;;6149120;23;20037;-79
2022/05/23 04:21:51;;;;;;;9.73;8.13;;;20.80;87.60;;;;;;6188134;23;20021;-78
2022/05/23 04:24:20;;;;;;;9.73;8.75;;;20.80;87.60;;;;;;6165523;23;20017;-76
2022/05/23 04:26:52;;;;;;;10.75;8.85;;;20.80;87.60;;;;;;6160009;23;20028;-76
2022/05/23 04:29:20;;;;;;;11.07;9.98;;;20.80;87.60;;;;;;6160118;23;20025;-77
2022/05/23 04:31:47;;;;;;;12.65;10.30;;;20.80;87.70;;;;;;6164080;23;20025;-79
2022/05/23 04:36:59;;;;;;;10.50;9.40;;;20.80;88.10;;;;;;6189359;23;20024;-79
2022/05/23 04:39:26;;;;;;;10.90;9.80;;;20.80;88.10;;;;;;6163928;23;20032;-77
2022/05/23 04:41:55;;;;;;;10.32;8.50;;;20.80;88.00;;;;;;6193332;23;20401;-79
2022/05/23 04:44:23;;;;;;;9.45;8.55;;;20.90;88.00;;;;;;6188368;23;20021;-78
2022/05/23 04:49:42;;;;;;;10.82;8.85;;;20.90;87.70;;;;;;6188499;23;20450;-78
2022/05/23 04:52:14;;;;;;;12.38;9.93;;;20.80;87.60;;;;;;6171609;23;20040;-78
2022/05/23 04:54:42;;;;;;;15.68;10.32;;;20.80;87.60;;;;;;6168531;23;20032;-78
2022/05/23 04:57:10;;;;;;;12.32;10.23;;;20.80;87.70;;;;;;6164574;23;20048;-78
2022/05/23 04:59:38;;;;;;;12.75;10.35;;;20.80;87.90;;;;;;6162807;23;20052;-76
2022/05/23 05:02:08;;;;;;;15.88;10.77;;;20.80;87.90;;;;;;6200383;23;20048;-78
2022/05/23 05:04:35;;;;;;;13.85;9.90;;;20.80;88.00;;;;;;6165254;23;20107;-77
2022/05/23 05:07:04;;;;;;;14.73;11.60;;;20.70;88.00;;;;;;6161656;23;20021;-78
2022/05/23 05:09:33;;;;;;;12.32;11.13;;;20.70;88.30;;;;;;6185214;23;20029;-77
2022/05/23 05:12:00;;;;;;;13.60;12.07;;;20.70;88.30;;;;;;6159220;23;20021;-77
2022/05/23 05:14:27;;;;;;;13.50;12.02;;;20.70;88.30;;;;;;6159775;23;20021;-78
2022/05/23 05:16:54;;;;;;;13.70;11.98;;;20.60;88.20;;;;;;6158320;23;20458;-77
2022/05/23 05:19:21;;;;;;;15.30;13.75;;;20.60;88.20;;;;;;6160877;23;20033;-78
2022/05/23 05:21:48;;;;;;;14.90;13.05;;;20.60;88.30;;;;;;6162506;23;20024;-77
2022/05/23 05:24:15;;;;;;;14.95;13.15;;;20.60;88.40;;;;;;6164097;23;20025;-79
2022/05/23 05:26:42;;;;;;;12.75;11.38;;;20.60;88.60;;;;;;6162537;23;20354;-78
2022/05/23 05:29:09;;;;;;;;;;;20.60;88.60;;;;;;6167909;23;20025;-77
2022/05/23 05:31:50;;;;;;;16.40;13.35;;;20.60;88.70;;;;;;6161585;23;19916;-77
2022/05/23 05:34:23;;;;;;;14.75;12.70;;;20.60;88.70;;;;;;6133364;23;20026;-78
2022/05/23 05:36:53;;;;;;;;;;;20.60;88.70;;;;;;6128124;23;20450;-77
2022/05/23 05:39:22;;;;;;;;;;;20.60;88.70;;;;;;6124706;23;19921;-78
2022/05/23 05:41:54;;;;;;;;;;;20.60;88.60;;;;;;6127612;23;19917;-77
2022/05/23 05:44:25;;;;;;;;;;;20.70;88.70;;;;;;6128337;23;19917;-78
2022/05/23 05:46:54;;;;;;;;;;;20.70;88.30;;;;;;6130133;23;19940;-77
2022/05/23 05:49:39;;;;;;;;;;;20.70;87.50;;;;;;6152091;23;19917;-79
2022/05/23 05:52:10;;;;;;;15.07;13.55;;;20.70;86.60;;;;;;6133032;23;19921;-78
2022/05/23 05:54:39;;;;;;;14.88;11.63;;;20.70;86.50;;;;;;6129189;23;20033;-78
2022/05/23 05:57:12;;;;;;;11.18;10.00;;;20.70;86.50;;;;;;6112052;23;20022;-78
2022/05/23 05:59:39;;;;;;;11.75;9.63;;;20.80;86.50;;;;;;6127418;23;20026;-77
2022/05/23 06:02:07;;;;;;;14.90;11.25;;;20.80;86.20;;;;;;6130731;23;20081;-77
2022/05/23 06:04:35;;;;;;;12.52;11.32;;;20.90;86.00;;;;;;6122787;23;20022;-77
2022/05/23 06:12:34;;;;;;;13.68;10.25;;;21.00;85.30;;;;;;6133784;23;20022;-79
2022/05/23 06:15:01;;;;;;;12.27;11.00;;;21.10;84.80;;;;;;6130112;23;20026;-78
2022/05/23 06:17:28;;;;;;;12.30;9.25;;;21.20;84.70;;;;;;6130669;23;20022;-78
2022/05/23 06:19:59;;;;;;;9.85;8.63;;;21.20;84.30;;;;;;6130161;23;20053;-78
2022/05/23 06:22:26;;;;;;;16.42;12.32;;;21.30;84.00;;;;;;6125828;23;20053;-78
2022/05/23 06:24:53;;;;;;;11.52;8.90;;;21.30;83.40;;;;;;6132616;23;20022;-77
2022/05/23 06:27:20;;;;;;;11.13;9.95;;;21.30;83.40;;;;;;6128889;23;20443;-79
2022/05/23 06:29:49;;;;;;;12.83;10.67;;;21.30;83.70;;;;;;6121929;23;20368;-78
2022/05/23 06:32:21;;;;;;;8.63;7.55;;;21.40;83.70;;;;;;6130923;23;20844;-77
2022/05/23 06:34:48;;;;;;;9.95;8.07;;;21.50;83.40;;;;;;6158782;23;20025;-78
2022/05/23 06:37:15;;;;;;;9.23;8.30;;;21.50;83.10;;;;;;6162848;23;20029;-78
2022/05/23 06:39:42;;;;;;;11.05;9.95;;;21.60;82.80;;;;;;6162240;23;20028;-79
2022/05/23 06:42:09;;;;;;;21.92;12.80;;;21.60;82.70;;;;;;6160644;23;20017;-78
2022/05/23 06:44:36;;;;;;;12.02;9.77;;;21.70;82.80;;;;;;6159588;23;20028;-78
2022/05/23 06:47:03;;;;;;;;;;;21.80;82.50;;;;;;6164894;23;20029;-77
2022/05/23 06:49:30;;;;;;;16.73;13.43;;;21.80;82.00;;;;;;6160853;23;19916;-78
2022/05/23 06:51:57;;;;;;;17.90;13.90;;;21.80;81.90;;;;;;6164514;23;20021;-77
2022/05/23 06:54:24;;;;;;;13.93;11.73;;;21.90;82.10;;;;;;6187887;23;20074;-77
2022/05/23 06:56:51;;;;;;;17.80;13.68;;;22.00;81.90;;;;;;6157757;23;20075;-78
2022/05/23 06:59:19;;;;;;;16.40;11.98;;;22.00;81.80;;;;;;6162209;23;20047;-77
2022/05/23 07:01:46;;;;;;;13.43;11.50;;;22.10;81.60;;;;;;6163217;23;20085;-80
2022/05/23 07:04:14;;;;;;;;;;;22.20;81.30;;;;;;6163547;23;20095;-78
2022/05/23 07:12:26;;;;;;;13.48;12.07;;;22.50;80.20;;;;;;6187185;23;20056;-77
2022/05/23 07:14:56;;;;;;;17.98;15.18;;;22.60;80.40;;;;;;6142487;23;20033;-79
2022/05/23 07:17:24;;;;;;;16.77;14.98;;;22.60;79.80;;;;;;6158472;23;20052;-77
2022/05/23 07:19:51;;;;;;;17.42;12.63;;;22.60;78.90;;;;;;6159658;23;20509;-78
2022/05/23 07:22:18;;;;;;;20.50;14.68;;;22.60;78.90;;;;;;6162001;23;20025;-79
2022/05/23 07:24:45;;;;;;;21.15;15.00;;;22.70;79.40;;;;;;6161552;23;20032;-77
2022/05/23 07:27:12;;;;;;;17.52;14.68;;;22.80;79.20;;;;;;6160202;23;20025;-77
2022/05/23 07:29:40;;;;;;;16.77;13.00;;;22.90;78.90;;;;;;6163057;23;20442;-77
2022/05/23 07:32:11;;;;;;;19.42;14.60;;;23.00;78.90;;;;;;6160160;23;20103;-77
2022/05/23 07:34:39;;;;;;;16.70;12.65;;;23.10;78.60;;;;;;6161221;23;20371;-78
2022/05/23 07:37:07;;;;;;;17.98;14.35;;;23.20;78.40;;;;;;6159546;23;20033;-78
2022/05/23 07:39:36;;;;;;;22.20;15.40;;;23.20;77.80;;;;;;6160379;23;20028;-78
2022/05/23 07:42:05;;;;;;;15.27;13.27;;;23.30;78.20;;;;;;6166470;23;20215;-77
2022/05/23 07:44:32;;;;;;;15.95;12.63;;;23.50;77.40;;;;;;6186250;23;20020;-77
2022/05/23 07:46:59;;;;;;;15.02;11.43;;;23.60;76.80;;;;;;6156261;23;20052;-76
2022/05/23 07:49:27;;;;;;;18.60;14.93;;;23.60;76.20;;;;;;6159779;23;20060;-78
2022/05/23 07:51:56;;;;;;;15.40;11.98;;;23.60;75.50;;;;;;6165973;23;20048;-78
2022/05/23 08:02:40;;;;;;;;;;;23.40;75.80;;;;;;6186994;23;19920;-78
2022/05/23 08:05:08;;;;;;;;;;;23.40;75.80;;;;;;6159662;23;19916;-77
2022/05/23 08:07:35;;;;;;;;;;;23.40;76.20;;;;;;6160301;23;19920;-76
2022/05/23 08:10:02;;;;;;;;;;;23.60;76.30;;;;;;6188741;23;19923;-79
2022/05/23 08:12:29;;;;;;;;;;;23.60;76.20;;;;;;6162923;23;20289;-76
2022/05/23 08:14:56;;;;;;;;;;;23.70;76.20;;;;;;6158607;23;19920;-78
2022/05/23 08:17:23;;;;;;;;;;;23.70;75.50;;;;;;6163948;23;20234;-77
2022/05/23 08:19:49;;;;;;;;;;;23.70;75.20;;;;;;6164424;23;19916;-78
2022/05/23 08:22:17;;;;;;;;;;;23.60;74.70;;;;;;6162209;23;19947;-78
2022/05/23 08:24:44;;;;;;;;;;;23.60;74.80;;;;;;6159404;23;19920;-78
2022/05/23 08:27:11;;;;;;;;;;;23.60;74.80;;;;;;6162432;23;19920;-79
2022/05/23 08:29:38;;;;;;;;;;;23.50;75.00;;;;;;6165298;23;20226;-79
2022/05/23 08:32:06;;;;;;;;;;;23.50;75.20;;;;;;6184219;23;20664;-77
2022/05/23 08:34:33;;;;;;;;;;;23.40;74.90;;;;;;6163766;23;19916;-77
2022/05/23 08:37:00;;;;;;;;;;;23.40;75.20;;;;;;6182921;23;19916;-79
2022/05/23 08:39:27;;;;;;;;;;;23.30;75.40;;;;;;6168402;23;19916;-77
2022/05/23 08:41:53;;;;;;;;;;;23.20;75.60;;;;;;6162088;23;19920;-79
2022/05/23 08:44:49;;;;;;;;;;;23.10;75.80;;;;;;6158365;23;20234;-77
2022/05/23 08:47:34;;;;;;;;;;;23.10;75.80;;;;;;6147812;23;19924;-77
2022/05/23 08:50:09;;;;;;;;;;;23.10;76.80;;;;;;6161283;23;19983;-78
2022/05/23 08:52:39;;;;;;;;;;;23.20;75.90;;;;;;6164022;23;19916;-77
2022/05/23 08:55:09;;;;;;;;;;;23.10;75.70;;;;;;6160403;23;19940;-78
2022/05/23 08:58:08;;;;;;;;;;;23.20;76.60;;;;;;6157873;23;19920;-77
2022/05/23 09:00:40;;;;;;;;;;;23.20;75.90;;;;;;6128974;23;19979;-78
2022/05/23 09:03:26;;;;;;;;;;;23.20;75.80;;;;;;6186904;23;19916;-78
2022/05/23 09:05:55;;;;;;;;;;;23.20;75.40;;;;;;6158842;23;19920;-76
2022/05/23 09:08:57;;;;;;;;;;;23.30;75.40;;;;;;6166790;23;19922;-76
2022/05/23 09:11:30;;;;;;;;;;;23.30;75.10;;;;;;6161308;23;20300;-77
2022/05/23 09:13:57;;;;;;;;;;;23.40;74.90;;;;;;6162806;23;19917;-78
2022/05/23 09:16:26;;;;;;;;;;;23.40;74.80;;;;;;6188562;23;19970;-76
2022/05/23 09:18:58;;;;;;;;;;;23.50;74.70;;;;;;6159074;23;19995;-77
2022/05/23 09:22:12;;;;;;;;;;;23.60;74.50;;;;;;6162298;23;19967;-79
2022/05/23 09:24:14;;;;;;;13.75;10.57;;;23.60;74.10;;;;;;6184589;23;19920;-78
2022/05/23 09:26:41;;;;;;;10.18;9.20;;;23.60;73.60;;;;;;6162044;23;20021;-76
2022/05/23 09:29:09;;;;;;;14.27;8.70;;;23.60;73.70;;;;;;6159206;23;20025;-77
2022/05/23 09:31:58;;;;;;;13.82;10.43;;;23.70;73.80;;;;;;6159664;23;20056;-78
2022/05/23 09:34:49;;;;;;;8.82;7.97;;;23.80;73.80;;;;;;6158672;23;20358;-78
2022/05/23 09:37:23;;;;;;;12.93;9.07;;;23.80;73.60;;;;;;6159966;23;20032;-76
2022/05/23 09:39:53;;;;;;;10.65;9.13;;;24.00;73.50;;;;;;6157193;23;20427;-77
2022/05/23 09:48:21;;;;;;;17.52;11.38;;;24.30;72.10;;;;;;6190576;23;20021;-76
2022/05/23 09:51:05;;;;;;;10.25;8.77;;;24.40;70.70;;;;;;6166002;23;20069;-78
2022/05/23 09:53:47;;;;;;;12.88;10.63;;;24.60;71.10;;;;;;6160868;23;20021;-79
2022/05/23 09:56:30;;;;;;;9.70;8.73;;;24.80;70.70;;;;;;6159294;23;20376;-77
2022/05/23 09:59:05;;;;;;;11.95;10.48;;;25.10;70.10;;;;;;6159676;23;20379;-79
2022/05/23 10:01:34;;;;;;;9.48;8.60;;;25.30;68.90;;;;;;6160110;23;20360;-78
2022/05/23 10:04:02;;;;;;;8.13;7.43;;;25.40;68.40;;;;;;6157107;23;20376;-78
2022/05/23 10:06:46;;;;;;;9.98;9.07;;;25.50;67.90;;;;;;6160105;23;20416;-78
2022/05/23 10:09:30;;;;;;;11.73;9.60;;;25.50;67.40;;;;;;6156532;23;20709;-78
2022/05/23 10:12:06;;;;;;;9.40;8.05;;;25.60;67.30;;;;;;6160192;23;20748;-79
2022/05/23 10:14:49;;;;;;;11.23;9.55;;;25.60;67.10;;;;;;6168948;23;20748;-79
2022/05/23 10:17:27;;;;;;;6.72;6.13;;;25.80;66.70;;;;;;6156178;23;20376;-77
2022/05/23 10:20:23;;;;;;;10.38;9.27;;;25.90;66.60;;;;;;6159919;23;20373;-77
2022/05/23 10:22:56;;;;;;;9.10;8.10;;;26.20;65.80;;;;;;6160934;23;20380;-78
2022/05/23 10:25:26;;;;;;;9.00;8.15;;;26.40;65.10;;;;;;6160816;23;20373;-77
2022/05/23 10:28:06;;;;;;;7.95;7.18;;;26.40;64.70;;;;;;6158621;23;20439;-79
2022/05/23 10:30:36;;;;;;;8.25;7.45;;;26.40;64.30;;;;;;6167814;23;20423;-78
2022/05/23 10:33:09;;;;;;;8.95;8.05;;;26.40;64.40;;;;;;6160379;23;20400;-76
2022/05/23 10:36:06;;;;;;;9.70;7.80;;;26.50;63.90;;;;;;6158806;23;20377;-80
2022/05/23 10:42:13;;;;;;;10.40;7.90;;;26.60;62.60;;;;;;6188830;23;20091;-78
2022/05/23 10:45:17;;;;;;;9.07;7.90;;;26.60;63.30;;;;;;6161985;23;20368;-79
2022/05/23 10:48:10;;;;;;;7.05;5.88;;;26.80;62.80;;;;;;6160430;23;20377;-77
2022/05/23 10:51:08;;;;;;;8.75;6.40;;;26.80;62.10;;;;;;6159903;23;20025;-78
2022/05/23 10:54:00;;;;;;;8.55;6.18;;;26.90;62.60;;;;;;6157183;23;20100;-78
2022/05/23 10:56:48;;;;;;;6.82;5.95;;;26.90;62.40;;;;;;6160469;23;20024;-78
2022/05/23 10:59:40;;;;;;;7.55;5.85;;;27.10;61.70;;;;;;6195223;23;20048;-78
2022/05/23 11:02:23;;;;;;;9.60;8.60;;;27.10;61.70;;;;;;6158004;23;20017;-77
2022/05/23 11:05:01;;;;;;;6.70;6.07;;;27.20;61.50;;;;;;6157382;23;20114;-79
2022/05/23 11:07:55;;;;;;;13.00;7.65;;;27.30;61.80;;;;;;6162969;23;20338;-80
2022/05/23 11:10:34;;;;;;;7.50;5.40;;;27.40;60.30;;;;;;6162634;23;20029;-79
2022/05/23 11:13:29;;;;;;;11.48;6.85;;;27.30;60.30;;;;;;6158802;23;20052;-78
2022/05/23 11:16:05;;;;;;;7.43;6.25;;;27.40;59.70;;;;;;6160422;23;20029;-79
2022/05/23 11:18:48;;;;;;;6.32;5.25;;;27.50;58.80;;;;;;6160483;23;20024;-77
2022/05/23 11:22:07;;;;;;;6.65;4.72;;;27.60;59.30;;;;;;6157138;23;20079;-77
2022/05/23 11:24:44;;;;;;;8.85;4.40;;;27.90;56.90;;;;;;6144346;23;20032;-77
2022/05/23 11:35:59;;;;;;;;;;;28.20;55.50;;;;;;6171633;23;20080;-79
2022/05/23 11:38:29;;;;;;;5.75;4.15;;;28.20;54.40;;;;;;6184495;23;19995;-78
2022/05/23 11:41:09;;;;;;;5.25;3.60;;;28.20;54.30;;;;;;6185596;23;20033;-79
2022/05/23 11:43:36;;;;;;;13.02;5.75;;;28.30;54.60;;;;;;6161148;23;20029;-80
2022/05/23 11:46:09;;;;;;;6.68;4.40;;;28.30;54.70;;;;;;6158073;23;20067;-77
2022/05/23 11:48:39;;;;;;;8.45;5.68;;;28.30;55.30;;;;;;6158060;23;20021;-78
2022/05/23 11:51:16;;;;;;;9.77;5.13;;;28.40;55.50;;;;;;6158390;23;20044;-77
2022/05/23 11:53:45;;;;;;;7.63;4.90;;;28.60;55.80;;;;;;6159433;23;20029;-78
2022/05/23 11:56:31;;;;;;;5.78;4.65;;;28.70;54.60;;;;;;6162416;23;20071;-78
2022/05/23 11:59:03;;;;;;;7.03;4.45;;;28.70;54.20;;;;;;6162058;23;20025;-80
2022/05/23 12:01:30;;;;;;;6.93;4.73;;;28.60;54.00;;;;;;6157432;23;20376;-77
2022/05/23 12:04:00;;;;;;;8.57;5.30;;;28.70;54.00;;;;;;6156565;23;20092;-79
2022/05/23 12:06:27;;;;;;;4.88;4.47;;;28.70;54.10;;;;;;6184886;23;20357;-77
2022/05/23 12:09:06;;;;;;;6.82;5.03;;;28.90;54.50;;;;;;6156538;23;20368;-80
2022/05/23 12:11:36;;;;;;;8.70;5.82;;;29.00;53.90;;;;;;6159602;23;20028;-77
2022/05/23 12:14:20;;;;;;;8.40;5.20;;;29.20;53.60;;;;;;6157370;23;20017;-78
2022/05/23 12:16:49;;;;;;;4.97;4.47;;;29.50;53.90;;;;;;6158001;23;20025;-77
2022/05/23 12:19:46;;;;;;;5.18;4.32;;;29.80;52.90;;;;;;6155765;23;20383;-78
2022/05/23 12:22:26;;;;;;;8.25;6.57;;;30.10;51.40;;;;;;6155668;23;20402;-80
2022/05/23 12:25:08;;;;;;;6.55;5.10;;;30.50;50.40;;;;;;6156920;23;20423;-80
2022/05/23 12:28:03;;;;;;;8.23;5.50;;;30.70;49.80;;;;;;6155805;23;20384;-79
2022/05/23 12:31:09;;;;;;;7.07;5.75;;;30.70;49.20;;;;;;6150189;23;20368;-78
2022/05/23 12:33:41;;;;;;;6.95;5.95;;;30.60;49.60;;;;;;6153620;23;20678;-80
2022/05/23 12:36:11;;;;;;;6.53;4.68;;;30.70;49.10;;;;;;6158356;23;20828;-80
2022/05/23 12:38:55;;;;;;;5.83;4.33;;;30.50;48.80;;;;;;6157426;23;20372;-78
2022/05/23 12:42:06;;;;;;;6.18;4.90;;;30.30;48.90;;;;;;6157012;23;20852;-79
2022/05/23 12:45:08;;;;;;;10.17;6.50;;;29.90;48.90;;;;;;6125980;23;20406;-77
2022/05/23 12:47:41;;;;;;;11.93;5.85;;;29.50;49.70;;;;;;6099536;23;20040;-78
2022/05/23 12:50:36;;;;;;;8.73;6.03;;;29.20;51.20;;;;;;6153084;23;20025;-78
2022/05/23 12:53:06;;;;;;;11.48;6.68;;;29.00;51.80;;;;;;6184742;23;20012;-78
2022/05/23 12:55:43;;;;;;;;;;;28.90;51.90;;;;;;6164417;23;20043;-78
2022/05/23 12:58:28;;;;;;;12.23;8.20;;;28.80;52.70;;;;;;6160569;23;20239;-79
2022/05/23 13:01:03;;;;;;;6.97;5.10;;;28.90;52.90;;;;;;6160827;23;20025;-78
2022/05/23 13:03:34;;;;;;;9.13;6.50;;;29.00;52.70;;;;;;6161233;23;20033;-80
2022/05/23 13:06:26;;;;;;;8.63;6.93;;;29.00;53.10;;;;;;6187318;23;20021;-76
2022/05/23 13:09:02;;;;;;;9.27;7.30;;;29.10;52.20;;;;;;6165036;23;20331;-79
2022/05/23 13:11:44;;;;;;;8.73;4.50;;;29.00;51.60;;;;;;6159141;23;20021;-78
2022/05/23 13:14:11;;;;;;;7.18;4.35;;;29.00;50.40;;;;;;6164189;23;20524;-77
2022/05/23 13:16:40;;;;;;;6.63;5.15;;;29.10;50.60;;;;;;6184873;23;20020;-78
2022/05/23 13:22:10;;;;;;;6.45;5.10;;;29.40;49.00;;;;;;6185893;23;20024;-80
2022/05/23 13:24:55;;;;;;;7.90;4.80;;;29.40;49.60;;;;;;6160340;23;20021;-77
2022/05/23 13:27:29;;;;;;;5.38;4.82;;;29.30;50.10;;;;;;6189797;23;20327;-79
2022/05/23 13:29:57;;;;;;;;;;;29.10;50.60;;;;;;6160204;23;20024;-78
2022/05/23 13:32:26;;;;;;;10.23;6.78;;;29.00;51.00;;;;;;6157931;23;19916;-77
2022/05/23 13:34:53;;;;;;;;;;;28.70;50.50;;;;;;6185431;23;20024;-80
2022/05/23 13:37:25;;;;;;;;;;;28.50;52.10;;;;;;6160632;23;19956;-80
2022/05/23 13:39:51;;;;;;;;;;;28.30;53.00;;;;;;6160522;23;19917;-77
2022/05/23 13:42:19;;;;;;;;;;;28.20;53.20;;;;;;6158011;23;20337;-79
2022/05/23 13:44:48;;;;;;;;;;;28.20;53.60;;;;;;6161434;23;19916;-79
2022/05/23 13:47:20;;;;;;;;;;;28.20;54.30;;;;;;6161696;23;19923;-79
2022/05/23 13:49:55;;;;;;;;;;;28.30;53.60;;;;;;6167625;23;19966;-79
2022/05/23 13:52:34;;;;;;;;;;;28.30;53.70;;;;;;6189512;23;19970;-79
2022/05/23 13:55:14;;;;;;;;;;;28.50;53.90;;;;;;6161896;23;19927;-80
2022/05/23 13:57:49;;;;;;;;;;;28.40;53.70;;;;;;6159652;23;20230;-77
2022/05/23 14:00:20;;;;;;;;;;;28.30;53.80;;;;;;6161933;23;19924;-79
2022/05/23 14:02:57;;;;;;;;;;;28.20;53.90;;;;;;6159447;23;20329;-77
2022/05/23 14:05:27;;;;;;;;;;;28.10;54.60;;;;;;6158485;23;20325;-78
2022/05/23 14:07:54;;;;;;;;;;;28.00;55.30;;;;;;6160190;23;19920;-78
2022/05/23 14:10:22;;;;;;;;;;;27.90;55.50;;;;;;6159720;23;19920;-78
2022/05/23 14:12:50;;;;;;;;;;;27.80;55.60;;;;;;6163118;23;20317;-78
2022/05/23 14:15:24;;;;;;;;;;;27.60;56.40;;;;;;6187609;23;20337;-79
2022/05/23 14:17:51;;;;;;;;;;;27.50;55.50;;;;;;6158053;23;19967;-79
2022/05/23 14:20:19;;;;;;;;;;;27.40;56.00;;;;;;6158943;23;19920;-79
2022/05/23 14:23:18;;;;;;;;;;;27.30;56.60;;;;;;6160412;23;19920;-79
2022/05/23 14:26:09;;;;;;;9.82;4.38;;;27.20;56.50;;;;;;6129104;23;19938;-78
2022/05/23 14:28:42;;;;;;;;;;;27.10;56.70;;;;;;6160920;23;20405;-79
2022/05/23 14:31:09;;;;;;;;;;;26.90;58.30;;;;;;6159023;23;19967;-78
2022/05/23 14:33:47;;;;;;;4.30;3.45;;;26.70;58.20;;;;;;6157108;23;19920;-77